MDT,Max TemperatureF,Mean TemperatureF,Min TemperatureF,Max Dew PointF,MeanDew PointF,Min DewpointF,Max Humidity, Mean Humidity, Min Humidity, Max Sea Level PressureIn, Mean Sea Level PressureIn, Min Sea Level PressureIn, Max VisibilityMiles, Mean VisibilityMiles, Min VisibilityMiles, Max Wind SpeedMPH, Mean Wind SpeedMPH, Max Gust SpeedMPH,PrecipitationIn, CloudCover, Events, WindDirDegrees
2012-4-1,61,51,40,36,29,17,61,43,24,29.87,29.51,29.24,10,10,10,30,14,37,0.02,4,Rain,305
2012-4-2,54,46,37,34,17,9,54,36,17,30.25,30.15,29.93,10,10,10,22,9,25,T,4,Rain,308
2012-4-3,64,46,28,26,21,14,58,39,19,30.23,30.06,29.83,10,10,10,16,6,23,0.00,0,,179
2012-4-4,72,57,41,33,26,15,53,35,17,29.82,29.68,29.53,10,10,10,17,8,22,0.00,1,,198
2012-4-5,51,45,38,31,27,20,70,51,32,29.94,29.86,29.68,10,10,10,20,10,20,T,6,Rain,24
2012-4-6,38,34,30,32,30,26,100,82,64,30.22,29.87,29.75,10,6,1,28,12,35,0.14,8,Snow,7
2012-4-7,50,39,27,29,21,11,92,59,25,30.36,30.29,30.14,10,10,10,23,12,28,0.00,2,,259
2012-4-8,55,42,29,23,19,14,63,45,26,30.42,30.36,30.31,10,10,10,12,6,15,0.00,2,,18
2012-4-9,55,44,33,23,20,17,56,42,28,30.35,30.28,30.20,10,10,10,17,9,22,0.00,0,,40
2012-4-10,63,47,30,26,20,15,51,37,23,30.21,30.11,29.98,10,10,10,20,8,25,0.00,0,,46
2012-4-11,72,52,31,44,32,21,66,47,28,29.97,29.72,29.44,10,10,10,20,7,23,0.00,1,,41
2012-4-12,58,52,46,46,38,31,77,58,38,29.71,29.52,29.35,10,10,8,37,14,44,0.04,6,Rain,276
2012-4-13,61,50,38,36,32,25,76,52,28,29.77,29.71,29.66,10,10,10,21,9,25,0.00,2,,220
2012-4-14,60,47,34,36,32,26,82,57,32,29.80,29.72,29.66,10,10,10,29,9,39,T,3,Rain,214
2012-4-15,44,38,32,36,32,29,100,79,57,30.16,30.02,29.78,10,7,1,20,8,24,0.07,8,Fog-Rain-Snow,37
2012-4-16,60,47,33,34,27,22,89,57,24,30.15,30.05,29.92,10,10,10,23,8,31,T,6,Snow,213
2012-4-17,56,47,38,37,33,27,67,54,41,30.06,30.00,29.92,10,10,10,20,9,24,T,4,Rain,233
2012-4-18,59,48,36,44,37,32,92,68,43,30.02,29.92,29.85,10,10,6,23,6,29,0.11,5,Rain,3
2012-4-19,59,48,36,39,34,22,100,62,23,30.12,30.00,29.95,10,7,0,30,10,37,T,3,Fog,237
2012-4-20,73,55,37,33,31,26,76,48,19,30.08,29.95,29.82,10,10,10,36,15,45,0.00,5,,253
2012-4-21,63,56,49,36,33,28,61,47,32,30.19,30.12,29.96,10,10,10,29,7,39,T,5,Rain,37
2012-4-22,81,60,39,39,32,22,85,49,12,30.21,30.09,29.96,10,10,10,16,6,21,0.00,0,,188
2012-4-23,87,70,53,41,33,26,40,27,14,29.95,29.87,29.78,10,10,10,28,11,35,T,2,Rain-Thunderstorm,237
2012-4-24,86,70,54,47,40,33,55,36,17,29.78,29.70,29.62,10,10,10,29,13,36,0.01,3,Thunderstorm,245
2012-4-25,82,69,56,45,39,30,62,40,17,29.90,29.81,29.71,10,10,10,32,8,39,T,3,Rain-Thunderstorm,265
2012-4-26,77,64,51,46,44,39,77,52,27,29.78,29.56,29.36,10,10,10,16,7,20,T,4,,45
2012-4-27,61,51,40,46,37,29,85,71,57,29.90,29.70,29.38,10,10,7,32,21,43,0.10,8,Rain,283
2012-4-28,43,40,37,36,33,29,92,76,60,30.04,29.98,29.89,10,10,9,44,24,53,0.03,8,Rain,300
2012-4-29,61,49,36,37,32,28,92,62,31,30.01,29.96,29.91,10,10,10,24,14,30,0.08,7,Rain,284
2012-4-30,66,53,40,47,34,27,77,51,24,29.90,29.68,29.55,10,10,10,28,9,35,0.04,4,Rain,224